Time;durP1;ratioP1;P1;durP2;ratioP2;P2;SDS_P1;SDS_P2;PMS_P1;PMS_P2;Temp;Humidity;BMP_temperature;BMP_pressure;BME280_temperature;BME280_humidity;BME280_pressure;Samples;Min_cycle;Max_cycle;Signal;HPM_P1;HPM_P2
2022/01/27 00:03:12;;;;;;;0.98;0.98;;;5.10;99.90;;;;;;5037192;28;20481;-86
2022/01/27 00:05:40;;;;;;;1.67;0.63;;;5.20;99.90;;;;;;5021064;28;20063;-86
2022/01/27 00:13:15;;;;;;;0.20;0.20;;;5.10;99.90;;;;;;5037440;28;20053;-86
2022/01/27 00:15:47;;;;;;;0.73;0.73;;;5.20;99.90;;;;;;5037595;28;20068;-86
2022/01/27 00:18:20;;;;;;;4.40;2.15;;;5.20;99.90;;;;;;5021066;28;20137;-85
2022/01/27 00:20:47;;;;;;;1.02;0.55;;;5.20;99.90;;;;;;5036946;28;20057;-86
2022/01/27 00:23:13;;;;;;;1.02;0.45;;;5.20;99.90;;;;;;5079709;28;20048;-86
2022/01/27 00:25:39;;;;;;;7.30;1.65;;;5.20;99.90;;;;;;5115542;28;20063;-86
2022/01/27 00:28:08;;;;;;;0.73;0.60;;;5.20;99.90;;;;;;5098785;28;20387;-86
2022/01/27 00:30:35;;;;;;;2.00;1.90;;;5.20;99.90;;;;;;5098183;28;20044;-86
2022/01/27 00:33:03;;;;;;;3.35;1.20;;;5.20;99.90;;;;;;5098042;28;20043;-86
2022/01/27 00:35:30;;;;;;;7.03;1.65;;;5.20;99.90;;;;;;5115091;28;20055;-86
2022/01/27 00:37:56;;;;;;;0.93;0.30;;;5.30;99.90;;;;;;5114900;28;20932;-86
2022/01/27 00:40:22;;;;;;;1.17;1.08;;;5.10;99.90;;;;;;5098266;28;20040;-86
2022/01/27 00:42:48;;;;;;;1.48;1.23;;;5.20;99.90;;;;;;5098244;28;20540;-86
2022/01/27 00:45:13;;;;;;;2.05;1.50;;;5.20;99.90;;;;;;5097902;28;20039;-86
2022/01/27 00:47:39;;;;;;;0.52;0.52;;;5.20;99.90;;;;;;5097933;28;20075;-86
2022/01/27 00:50:05;;;;;;;8.35;2.00;;;5.20;99.90;;;;;;5097747;28;20082;-86
2022/01/27 00:52:44;;;;;;;0.30;0.30;;;5.20;99.90;;;;;;5097527;28;20044;-86
2022/01/27 00:55:12;;;;;;;1.75;1.38;;;5.20;99.90;;;;;;5097948;28;20040;-86
2022/01/27 00:58:01;;;;;;;0.47;0.47;;;5.20;99.90;;;;;;5114696;28;20056;-86
2022/01/27 01:00:33;;;;;;;1.38;0.73;;;5.30;99.90;;;;;;5114181;28;20501;-86
2022/01/27 01:03:07;;;;;;;0.88;0.82;;;5.20;99.90;;;;;;5114334;28;20509;-86
2022/01/27 01:08:16;;;;;;;0.65;0.65;;;5.20;99.90;;;;;;5114969;28;20414;-86
2022/01/27 01:16:14;;;;;;;2.85;0.90;;;5.20;99.90;;;;;;5114440;28;20100;-85
2022/01/27 01:18:53;;;;;;;2.95;1.92;;;5.20;99.90;;;;;;5096920;28;20487;-86
2022/01/27 01:29:39;;;;;;;1.52;1.42;;;5.30;99.90;;;;;;5114104;28;20445;-86
2022/01/27 01:32:17;;;;;;;2.72;1.65;;;5.20;99.90;;;;;;5096760;28;20058;-86
2022/01/27 01:34:47;;;;;;;0.70;0.70;;;5.20;99.90;;;;;;5096514;28;20059;-86
2022/01/27 01:37:17;;;;;;;1.38;1.15;;;5.20;99.90;;;;;;5096690;28;20139;-86
2022/01/27 01:39:43;;;;;;;1.75;1.23;;;5.20;99.90;;;;;;5114318;28;20043;-86
2022/01/27 01:42:10;;;;;;;5.10;2.17;;;5.20;99.90;;;;;;5113497;28;20473;-86
2022/01/27 01:44:37;;;;;;;3.40;0.63;;;5.20;99.90;;;;;;5113725;28;20043;-87
2022/01/27 01:47:03;;;;;;;0.85;0.85;;;5.20;99.90;;;;;;5113363;28;20472;-86
2022/01/27 01:49:29;;;;;;;4.85;0.80;;;5.20;99.90;;;;;;5096843;28;20051;-86
2022/01/27 01:51:57;;;;;;;2.67;0.90;;;5.30;99.90;;;;;;5113924;28;20103;-86
2022/01/27 01:54:23;;;;;;;3.05;1.73;;;5.20;99.90;;;;;;5096714;28;20054;-86
2022/01/27 01:56:49;;;;;;;0.57;0.57;;;5.30;99.90;;;;;;5096617;28;20503;-86
2022/01/27 01:59:15;;;;;;;0.90;0.88;;;5.30;99.90;;;;;;5096658;28;20043;-86
2022/01/27 02:01:42;;;;;;;1.80;1.52;;;5.30;99.90;;;;;;5114093;28;20368;-86
2022/01/27 02:04:10;;;;;;;0.38;0.20;;;5.30;99.90;;;;;;5096205;28;20044;-86
2022/01/27 02:06:55;;;;;;;1.55;0.43;;;5.30;99.90;;;;;;5096545;28;20047;-86
2022/01/27 02:20:05;;;;;;;0.93;0.93;;;5.30;99.90;;;;;;5113767;28;20379;-86
2022/01/27 02:22:31;;;;;;;5.22;1.25;;;5.30;99.90;;;;;;5113244;28;20042;-86
2022/01/27 02:24:57;;;;;;;0.32;0.32;;;5.50;99.90;;;;;;5112600;28;20059;-86
2022/01/27 02:27:22;;;;;;;1.23;1.10;;;5.30;99.90;;;;;;5096233;28;20431;-86
2022/01/27 02:29:49;;;;;;;2.90;2.33;;;5.30;99.90;;;;;;5096795;28;20047;-87
2022/01/27 02:32:16;;;;;;;1.13;0.82;;;5.30;99.90;;;;;;5112758;28;20040;-86
2022/01/27 02:34:42;;;;;;;0.85;0.73;;;5.30;99.90;;;;;;5095772;28;20050;-86
2022/01/27 02:37:09;;;;;;;2.00;1.38;;;5.30;99.90;;;;;;5112911;28;20112;-86
2022/01/27 02:39:37;;;;;;;2.38;1.27;;;5.30;99.90;;;;;;5096044;28;20054;-86
2022/01/27 02:42:34;;;;;;;1.13;1.05;;;5.30;99.90;;;;;;5113244;28;20395;-86
2022/01/27 02:45:06;;;;;;;1.35;1.25;;;5.30;99.90;;;;;;5112682;28;20406;-86
2022/01/27 02:47:33;;;;;;;2.25;1.05;;;5.30;99.90;;;;;;5095997;28;20097;-86
2022/01/27 02:49:58;;;;;;;1.25;0.80;;;5.40;99.90;;;;;;5112959;28;20036;-86
2022/01/27 02:52:24;;;;;;;0.45;0.45;;;5.30;99.90;;;;;;5095946;28;20066;-86
2022/01/27 02:54:50;;;;;;;1.52;0.45;;;5.40;99.90;;;;;;5095845;28;20139;-87
2022/01/27 02:57:16;;;;;;;0.65;0.65;;;5.30;99.90;;;;;;5095824;28;20047;-86
2022/01/27 02:59:42;;;;;;;1.33;0.75;;;5.30;99.90;;;;;;5095895;28;20051;-86
2022/01/27 03:02:08;;;;;;;0.30;0.30;;;5.70;99.90;;;;;;5112766;28;20040;-86
2022/01/27 03:04:34;;;;;;;1.75;0.70;;;5.30;99.90;;;;;;5095625;28;20066;-86
2022/01/27 03:07:06;;;;;;;1.10;0.82;;;5.40;99.90;;;;;;5112504;28;20504;-86
2022/01/27 03:09:33;;;;;;;0.57;0.38;;;5.40;99.90;;;;;;5095816;28;20054;-87
2022/01/27 03:12:01;;;;;;;0.40;0.40;;;5.30;99.90;;;;;;5095669;28;20134;-86
2022/01/27 03:14:29;;;;;;;1.40;1.17;;;5.50;99.90;;;;;;5113411;28;20047;-86
2022/01/27 03:16:57;;;;;;;1.67;0.88;;;5.40;99.90;;;;;;5095717;28;20604;-86
2022/01/27 03:19:23;;;;;;;0.88;0.73;;;5.40;99.90;;;;;;5095765;28;20100;-86
2022/01/27 03:21:50;;;;;;;1.17;0.93;;;5.40;99.90;;;;;;5095608;28;20458;-87
2022/01/27 03:24:16;;;;;;;4.95;1.17;;;5.40;99.90;;;;;;5112238;28;20063;-86
2022/01/27 03:26:42;;;;;;;0.82;0.57;;;5.60;99.90;;;;;;5095461;28;20044;-86
2022/01/27 03:29:08;;;;;;;1.02;0.63;;;5.50;99.90;;;;;;5096161;28;20050;-86
2022/01/27 03:31:35;;;;;;;1.00;1.00;;;5.50;99.90;;;;;;5112570;28;20035;-86
2022/01/27 03:34:01;;;;;;;4.45;1.33;;;5.70;99.90;;;;;;5112620;28;20047;-87
2022/01/27 03:36:27;;;;;;;1.58;1.05;;;5.50;99.90;;;;;;5112473;28;20128;-86
2022/01/27 03:38:52;;;;;;;4.25;0.65;;;5.50;99.90;;;;;;5112342;28;20082;-86
2022/01/27 03:41:21;;;;;;;0.80;0.73;;;5.60;99.90;;;;;;5095411;28;20044;-86
2022/01/27 03:43:48;;;;;;;0.98;0.77;;;5.50;99.90;;;;;;5112225;28;20380;-86
2022/01/27 03:46:15;;;;;;;0.25;0.25;;;5.60;99.90;;;;;;5113495;28;20101;-86
2022/01/27 03:48:40;;;;;;;1.08;0.75;;;5.50;99.90;;;;;;5099070;28;20083;-87
2022/01/27 03:51:06;;;;;;;1.23;0.40;;;5.60;99.90;;;;;;5116107;28;20161;-86
2022/01/27 03:53:32;;;;;;;0.57;0.57;;;5.60;99.90;;;;;;5098881;28;20154;-87
2022/01/27 03:55:58;;;;;;;1.48;0.95;;;5.40;99.90;;;;;;5098513;28;20048;-87
2022/01/27 03:58:23;;;;;;;1.35;1.20;;;5.50;99.90;;;;;;5098684;28;20043;-86
2022/01/27 04:00:49;;;;;;;0.38;0.30;;;5.50;99.90;;;;;;5098934;28;20081;-86
2022/01/27 04:03:17;;;;;;;2.60;0.70;;;5.60;99.90;;;;;;5098856;28;20434;-86
2022/01/27 04:05:50;;;;;;;0.60;0.60;;;6.00;99.90;;;;;;5098796;28;20044;-87
2022/01/27 04:08:16;;;;;;;0.57;0.57;;;5.50;99.90;;;;;;5098423;28;20391;-86
2022/01/27 04:10:42;;;;;;;4.13;1.20;;;5.40;99.90;;;;;;5098570;28;20055;-86
2022/01/27 04:13:08;;;;;;;0.20;0.20;;;5.60;99.90;;;;;;5098484;28;20043;-86
2022/01/27 04:15:36;;;;;;;0.30;0.30;;;5.60;99.90;;;;;;5115329;28;20050;-87
2022/01/27 04:18:02;;;;;;;0.60;0.40;;;5.30;99.90;;;;;;5115311;28;20496;-87
2022/01/27 04:20:28;;;;;;;1.27;0.63;;;5.50;99.90;;;;;;5115434;28;20432;-87
2022/01/27 04:22:53;;;;;;;0.85;0.85;;;5.50;99.90;;;;;;5115139;28;20043;-87
2022/01/27 04:25:19;;;;;;;3.75;1.95;;;5.50;99.90;;;;;;5114890;28;20066;-87
2022/01/27 04:27:50;;;;;;;2.45;0.90;;;5.90;99.90;;;;;;5115306;28;20109;-86
2022/01/27 04:30:21;;;;;;;0.25;0.25;;;4.90;99.90;;;;;;5115473;28;20134;-86
2022/01/27 04:32:57;;;;;;;7.28;0.63;;;5.40;99.90;;;;;;5115411;28;20051;-86
2022/01/27 04:35:26;;;;;;;0.52;0.28;;;5.70;99.90;;;;;;5098210;28;20051;-86
2022/01/27 04:40:40;;;;;;;0.17;0.17;;;5.40;99.90;;;;;;5115209;28;20044;-86
2022/01/27 04:43:20;;;;;;;1.30;0.50;;;5.50;99.90;;;;;;5097794;28;20036;-86
2022/01/27 04:48:40;;;;;;;1.10;1.02;;;5.40;99.90;;;;;;5036978;28;20082;-86
2022/01/27 04:51:08;;;;;;;0.75;0.75;;;5.60;99.90;;;;;;5020190;28;20053;-86
2022/01/27 04:53:41;;;;;;;0.55;0.55;;;5.70;99.90;;;;;;5036713;28;20057;-86
2022/01/27 04:56:11;;;;;;;0.10;0.10;;;6.20;99.90;;;;;;5019267;28;20041;-86
2022/01/27 04:58:37;;;;;;;1.17;0.98;;;5.50;99.90;;;;;;5035884;28;20381;-86
2022/01/27 05:01:04;;;;;;;0.82;0.80;;;5.60;99.90;;;;;;5035594;28;20106;-86
2022/01/27 05:03:45;;;;;;;0.85;0.82;;;5.60;99.90;;;;;;5016223;28;20037;-86
2022/01/27 05:06:10;;;;;;;2.85;1.95;;;5.60;99.90;;;;;;5035756;28;20463;-86
2022/01/27 05:08:36;;;;;;;2.20;1.77;;;5.60;99.90;;;;;;5019855;28;20138;-86
2022/01/27 05:13:39;;;;;;;1.58;0.60;;;5.60;99.90;;;;;;5036134;28;20049;-86
2022/01/27 05:16:05;;;;;;;0.70;0.70;;;5.70;99.90;;;;;;5036851;28;20052;-87
2022/01/27 05:18:31;;;;;;;4.95;1.15;;;5.70;99.90;;;;;;5019501;28;20210;-87
2022/01/27 05:20:57;;;;;;;0.55;0.55;;;5.60;99.90;;;;;;5035986;28;20544;-87
2022/01/27 05:23:22;;;;;;;1.58;1.08;;;5.70;99.90;;;;;;5019908;28;20111;-87
2022/01/27 05:25:48;;;;;;;0.03;0.03;;;5.70;99.90;;;;;;5052122;28;20377;-86
2022/01/27 05:28:14;;;;;;;7.57;2.55;;;5.90;99.90;;;;;;5094238;28;20040;-86
2022/01/27 05:30:39;;;;;;;0.73;0.73;;;5.70;99.90;;;;;;5095145;28;20036;-87
2022/01/27 05:33:05;;;;;;;3.80;2.65;;;5.70;99.90;;;;;;5114306;28;20152;-86
2022/01/27 05:35:31;;;;;;;2.45;2.25;;;6.10;99.90;;;;;;5113939;28;20047;-87
2022/01/27 05:37:57;;;;;;;0.43;0.43;;;5.60;99.90;;;;;;5096612;28;20051;-87
2022/01/27 05:40:23;;;;;;;2.85;0.60;;;5.60;99.90;;;;;;5096739;28;20066;-86
2022/01/27 05:42:49;;;;;;;1.58;0.75;;;5.60;99.90;;;;;;5113627;28;20036;-86
2022/01/27 05:45:14;;;;;;;0.55;0.40;;;5.90;99.90;;;;;;5113791;28;20441;-87
2022/01/27 05:47:40;;;;;;;0.20;0.20;;;5.70;99.90;;;;;;5113508;28;20386;-86
2022/01/27 05:50:06;;;;;;;1.27;0.68;;;6.00;99.90;;;;;;5113793;28;20100;-86
2022/01/27 05:52:32;;;;;;;3.17;0.95;;;5.70;99.90;;;;;;5096675;28;20044;-86
2022/01/27 05:54:58;;;;;;;2.47;1.00;;;6.40;99.90;;;;;;5113810;28;20044;-87
2022/01/27 05:57:24;;;;;;;2.97;0.82;;;5.70;99.90;;;;;;5113348;28;20035;-87
2022/01/27 05:59:50;;;;;;;0.47;0.43;;;5.70;99.90;;;;;;5096300;28;20054;-87
2022/01/27 06:02:15;;;;;;;18.10;1.10;;;6.60;99.90;;;;;;5095742;28;20058;-86
2022/01/27 06:04:41;;;;;;;0.47;0.43;;;6.70;99.90;;;;;;5095419;28;20052;-86
2022/01/27 06:07:07;;;;;;;1.23;1.13;;;6.20;99.90;;;;;;5112893;28;20120;-86
2022/01/27 06:09:32;;;;;;;2.53;1.35;;;6.00;99.90;;;;;;5096059;28;20100;-86
2022/01/27 06:11:58;;;;;;;0.05;0.03;;;5.80;99.90;;;;;;5096047;28;20060;-85
2022/01/27 06:14:24;;;;;;;2.28;0.82;;;6.00;99.90;;;;;;5096233;28;20521;-86
2022/01/27 06:16:49;;;;;;;1.05;0.68;;;5.90;99.90;;;;;;5113296;28;20498;-86
2022/01/27 06:19:15;;;;;;;0.70;0.68;;;5.90;99.90;;;;;;5096337;28;20407;-86
2022/01/27 06:21:43;;;;;;;0.60;0.32;;;5.90;99.90;;;;;;5113088;28;20059;-85
2022/01/27 06:24:10;;;;;;;0.93;0.65;;;5.90;99.90;;;;;;5095522;28;20054;-86
2022/01/27 06:26:35;;;;;;;0.20;0.15;;;5.80;99.90;;;;;;5096404;28;20055;-85
2022/01/27 06:29:01;;;;;;;0.10;0.10;;;5.80;99.90;;;;;;5096156;28;20047;-86
2022/01/27 06:31:27;;;;;;;0.70;0.38;;;5.70;99.90;;;;;;5096128;28;20052;-86
2022/01/27 06:33:52;;;;;;;0.20;0.20;;;5.80;99.90;;;;;;5113085;28;20059;-86
2022/01/27 06:36:19;;;;;;;1.10;1.05;;;6.00;99.90;;;;;;5095926;28;20090;-86
2022/01/27 06:38:46;;;;;;;0.95;0.45;;;5.80;99.90;;;;;;5096134;28;20058;-86
2022/01/27 06:41:13;;;;;;;0.10;0.10;;;5.70;99.90;;;;;;5113240;28;20487;-86
2022/01/27 06:43:39;;;;;;;2.75;1.65;;;5.80;99.90;;;;;;5112777;28;20081;-85
2022/01/27 06:46:04;;;;;;;11.00;0.90;;;6.80;99.90;;;;;;5112626;28;20067;-86
2022/01/27 06:48:30;;;;;;;2.35;0.22;;;5.60;99.90;;;;;;5112205;28;20086;-86
2022/01/27 06:50:56;;;;;;;0.32;0.10;;;5.70;99.90;;;;;;5095713;28;20048;-85
2022/01/27 06:53:23;;;;;;;0.28;0.25;;;6.00;99.90;;;;;;5113504;28;20063;-86
2022/01/27 06:55:49;;;;;;;0.95;0.00;;;5.90;99.90;;;;;;5095923;28;20130;-85
2022/01/27 06:58:15;;;;;;;2.45;0.55;;;5.70;99.90;;;;;;5096027;28;20055;-85
2022/01/27 07:00:41;;;;;;;0.80;0.30;;;5.70;99.90;;;;;;5095778;28;20051;-85
2022/01/27 07:03:07;;;;;;;3.75;0.77;;;5.70;99.90;;;;;;5095644;28;20380;-86
2022/01/27 07:05:33;;;;;;;13.55;1.10;;;6.00;99.90;;;;;;5095480;28;20055;-86
2022/01/27 07:08:00;;;;;;;0.77;0.57;;;5.80;99.90;;;;;;5096361;28;20053;-86
2022/01/27 07:10:26;;;;;;;0.28;0.20;;;5.80;99.90;;;;;;5096559;28;20052;-84
2022/01/27 07:12:52;;;;;;;0.10;0.10;;;5.70;99.90;;;;;;5112960;28;20043;-85
2022/01/27 07:15:19;;;;;;;0.00;0.00;;;5.90;99.90;;;;;;5112701;28;20047;-85
2022/01/27 07:17:44;;;;;;;2.08;1.45;;;5.80;99.90;;;;;;5095307;28;20113;-85
2022/01/27 07:20:11;;;;;;;3.50;1.05;;;6.30;99.90;;;;;;5095707;28;20047;-86
2022/01/27 07:22:37;;;;;;;0.77;0.77;;;5.80;99.90;;;;;;5098755;28;20503;-84
2022/01/27 07:25:05;;;;;;;1.20;1.10;;;5.90;99.90;;;;;;5099103;28;20067;-85
2022/01/27 07:27:32;;;;;;;4.38;1.35;;;5.80;99.90;;;;;;5097227;28;20130;-87
2022/01/27 07:29:58;;;;;;;0.30;0.30;;;5.90;99.90;;;;;;5097919;28;20056;-87
2022/01/27 07:32:24;;;;;;;0.20;0.20;;;6.00;99.90;;;;;;5097768;28;20040;-88
2022/01/27 07:34:50;;;;;;;1.08;0.10;;;6.40;99.90;;;;;;5097685;28;20038;-86
2022/01/27 07:37:15;;;;;;;0.20;0.15;;;6.20;99.90;;;;;;5111600;28;20044;-86
2022/01/27 07:39:43;;;;;;;0.73;0.73;;;6.20;99.90;;;;;;5097902;28;20039;-87
2022/01/27 07:42:09;;;;;;;1.20;0.60;;;6.00;99.90;;;;;;5114125;28;20059;-86
2022/01/27 07:44:35;;;;;;;0.10;0.10;;;6.10;99.90;;;;;;5114688;28;20036;-86
2022/01/27 07:47:01;;;;;;;3.58;1.33;;;6.00;99.90;;;;;;5115048;28;20501;-86
2022/01/27 07:49:28;;;;;;;0.20;0.20;;;6.10;99.90;;;;;;5114666;28;20056;-85
2022/01/27 07:51:54;;;;;;;0.00;0.00;;;6.10;99.90;;;;;;5095201;28;20043;-84
2022/01/27 07:54:22;;;;;;;0.20;0.20;;;6.10;99.90;;;;;;5097437;28;20032;-88
2022/01/27 07:56:48;;;;;;;0.32;0.10;;;6.10;99.90;;;;;;5097266;28;20048;-87
2022/01/27 07:59:14;;;;;;;1.05;0.20;;;6.20;99.90;;;;;;5114382;28;20042;-91
2022/01/27 08:01:40;;;;;;;0.55;0.40;;;7.10;99.90;;;;;;5097770;28;20044;-87
2022/01/27 08:04:09;;;;;;;0.28;0.15;;;6.40;99.90;;;;;;5113929;28;20043;-87
2022/01/27 08:06:35;;;;;;;0.00;0.00;;;6.30;99.90;;;;;;5114176;28;20501;-87
2022/01/27 08:09:01;;;;;;;1.15;1.05;;;6.60;99.90;;;;;;5096746;28;20521;-87
2022/01/27 08:11:26;;;;;;;0.00;0.00;;;6.20;99.90;;;;;;5113771;28;20059;-86
2022/01/27 08:13:52;;;;;;;0.43;0.35;;;6.50;99.90;;;;;;5096321;28;20104;-89
2022/01/27 08:16:18;;;;;;;0.10;0.03;;;6.00;99.90;;;;;;5098273;28;20501;-89
2022/01/27 08:18:44;;;;;;;0.00;0.00;;;6.30;99.90;;;;;;5116100;28;20039;-90
2022/01/27 08:21:09;;;;;;;0.35;0.35;;;6.60;99.90;;;;;;5116475;28;20126;-91
2022/01/27 08:23:37;;;;;;;1.30;0.85;;;6.30;99.90;;;;;;5115774;28;20040;-91
2022/01/27 08:26:08;;;;;;;0.50;0.50;;;6.40;99.90;;;;;;5099168;28;20051;-90
2022/01/27 08:28:43;;;;;;;0.95;0.88;;;6.30;99.90;;;;;;5098915;28;20043;-90
2022/01/27 08:31:09;;;;;;;55.35;3.13;;;6.40;99.90;;;;;;5116138;28;20050;-91
2022/01/27 08:33:38;;;;;;;0.10;0.10;;;6.50;99.90;;;;;;5098322;28;20043;-90
2022/01/27 08:36:05;;;;;;;0.00;0.00;;;6.40;99.90;;;;;;5098792;28;20051;-90
2022/01/27 08:38:30;;;;;;;3.72;1.17;;;6.40;99.90;;;;;;5115731;28;20113;-90
2022/01/27 08:40:59;;;;;;;0.00;0.00;;;6.50;99.90;;;;;;5115771;28;20048;-90
2022/01/27 08:43:25;;;;;;;1.65;0.20;;;6.50;99.90;;;;;;5115456;28;20095;-91
2022/01/27 08:45:51;;;;;;;0.10;0.10;;;6.50;99.90;;;;;;5098740;28;20071;-91
2022/01/27 08:48:20;;;;;;;0.00;0.00;;;6.60;99.90;;;;;;5098783;28;20044;-91
2022/01/27 08:50:59;;;;;;;4.13;0.85;;;6.50;99.90;;;;;;5115109;28;20479;-91
2022/01/27 08:53:26;;;;;;;1.40;0.47;;;6.70;99.90;;;;;;5097875;28;20483;-91
2022/01/27 08:55:52;;;;;;;0.10;0.10;;;6.60;99.90;;;;;;5099391;28;20047;-92
2022/01/27 08:58:21;;;;;;;0.20;0.10;;;6.50;99.90;;;;;;5098285;28;20065;-91
2022/01/27 09:00:47;;;;;;;0.40;0.30;;;6.70;99.90;;;;;;5115722;28;20129;-91
2022/01/27 09:03:12;;;;;;;0.85;0.25;;;6.60;99.90;;;;;;5098225;28;20035;-91
2022/01/27 09:05:38;;;;;;;1.00;0.60;;;6.60;99.90;;;;;;5115449;28;20039;-91
2022/01/27 09:08:04;;;;;;;1.65;0.45;;;6.60;99.90;;;;;;5115011;28;20133;-90
2022/01/27 09:10:32;;;;;;;2.35;0.35;;;6.60;99.90;;;;;;5097868;28;20449;-91
2022/01/27 09:13:00;;;;;;;2.17;0.28;;;6.80;99.90;;;;;;5098028;28;20044;-91
2022/01/27 09:15:25;;;;;;;0.22;0.20;;;6.50;99.90;;;;;;5114785;28;20075;-92
2022/01/27 09:17:51;;;;;;;0.03;0.03;;;6.70;99.90;;;;;;5114600;28;20495;-91
2022/01/27 09:20:17;;;;;;;0.50;0.50;;;6.70;99.90;;;;;;5096193;28;20050;-90
2022/01/27 09:22:43;;;;;;;0.45;0.45;;;6.70;99.90;;;;;;5113032;28;20126;-90
2022/01/27 09:25:22;;;;;;;4.57;1.08;;;6.80;99.90;;;;;;5113010;28;20044;-92
2022/01/27 09:27:48;;;;;;;0.73;0.20;;;6.90;99.90;;;;;;5096564;28;20047;-89
2022/01/27 09:30:17;;;;;;;1.40;0.43;;;6.90;99.90;;;;;;5095138;28;20513;-90
2022/01/27 09:32:43;;;;;;;0.70;0.10;;;6.90;99.90;;;;;;5096063;28;20399;-90
2022/01/27 09:35:10;;;;;;;0.20;0.20;;;8.20;99.90;;;;;;5113078;28;20045;-89
2022/01/27 09:37:36;;;;;;;0.00;0.00;;;7.00;99.90;;;;;;5094423;28;20394;-91
2022/01/27 09:40:03;;;;;;;0.77;0.28;;;7.00;99.90;;;;;;5111980;28;20051;-89
2022/01/27 09:42:33;;;;;;;5.50;1.88;;;7.10;99.90;;;;;;5095535;28;20051;-89
2022/01/27 09:45:02;;;;;;;0.45;0.45;;;7.10;99.90;;;;;;5094223;28;20058;-90
2022/01/27 09:47:30;;;;;;;0.65;0.13;;;7.10;99.90;;;;;;5094626;28;20074;-92
2022/01/27 09:50:06;;;;;;;0.00;0.00;;;7.20;99.90;;;;;;5094842;28;20054;-90
2022/01/27 09:52:32;;;;;;;0.38;0.38;;;7.20;99.90;;;;;;5094731;28;20115;-91
2022/01/27 09:54:58;;;;;;;6.60;0.28;;;7.20;99.90;;;;;;5112943;28;20724;-90
2022/01/27 09:57:24;;;;;;;5.15;0.22;;;7.40;99.90;;;;;;5094017;28;20143;-89
2022/01/27 09:59:50;;;;;;;0.10;0.00;;;7.50;99.90;;;;;;5092897;28;20070;-88
2022/01/27 10:02:18;;;;;;;3.97;1.38;;;7.50;99.90;;;;;;5094751;28;20138;-88
2022/01/27 10:04:52;;;;;;;0.00;0.00;;;7.60;99.90;;;;;;5093721;28;20059;-89
2022/01/27 10:07:21;;;;;;;0.63;0.63;;;7.60;99.90;;;;;;5111289;28;20051;-88
2022/01/27 10:10:10;;;;;;;0.63;0.25;;;7.70;99.90;;;;;;5111235;28;20051;-88
2022/01/27 10:12:40;;;;;;;0.60;0.35;;;7.70;99.90;;;;;;5093965;28;20483;-89
2022/01/27 10:15:10;;;;;;;0.40;0.40;;;7.70;99.90;;;;;;5094943;28;20130;-88
2022/01/27 10:17:39;;;;;;;2.92;0.73;;;7.70;99.90;;;;;;5094842;28;20410;-89
2022/01/27 10:20:18;;;;;;;6.50;0.45;;;7.80;99.90;;;;;;5093481;28;20396;-89
2022/01/27 10:23:23;;;;;;;0.25;0.25;;;7.80;99.90;;;;;;5111580;28;20422;-90
2022/01/27 10:25:56;;;;;;;0.10;0.10;;;7.70;99.90;;;;;;5012288;28;20045;-89
2022/01/27 10:31:13;;;;;;;0.20;0.17;;;7.70;99.90;;;;;;5028991;28;20057;-89
2022/01/27 10:33:49;;;;;;;2.38;0.75;;;7.80;99.90;;;;;;5013535;28;20533;-89
2022/01/27 10:36:33;;;;;;;2.42;0.40;;;7.80;99.90;;;;;;5013467;28;20050;-89
2022/01/27 10:39:02;;;;;;;0.00;0.00;;;7.80;99.90;;;;;;4996579;28;20061;-90
2022/01/27 10:41:32;;;;;;;0.45;0.15;;;7.80;99.90;;;;;;4995295;28;20072;-88
2022/01/27 10:44:06;;;;;;;0.30;0.13;;;7.90;99.90;;;;;;4996898;28;20103;-89
2022/01/27 10:46:33;;;;;;;0.13;0.10;;;7.80;99.90;;;;;;5012815;28;20057;-88
2022/01/27 10:49:11;;;;;;;0.70;0.70;;;7.80;99.90;;;;;;5015166;28;20441;-89
2022/01/27 10:51:47;;;;;;;0.10;0.10;;;7.90;99.90;;;;;;5015563;28;20056;-88
2022/01/27 10:54:20;;;;;;;0.85;0.68;;;7.80;99.90;;;;;;4998796;28;20050;-89
2022/01/27 10:56:47;;;;;;;0.10;0.03;;;7.90;99.90;;;;;;5018765;28;20505;-89
2022/01/27 10:59:16;;;;;;;0.03;0.00;;;7.80;99.90;;;;;;5029101;28;20380;-90
2022/01/27 11:01:51;;;;;;;0.95;0.20;;;7.80;99.90;;;;;;5117625;28;20095;-88
2022/01/27 11:04:18;;;;;;;0.00;0.00;;;7.80;99.90;;;;;;5100308;28;20430;-90
2022/01/27 11:06:55;;;;;;;0.00;0.00;;;7.80;99.90;;;;;;5100289;28;20055;-94
2022/01/27 11:09:21;;;;;;;0.00;0.00;;;7.80;99.90;;;;;;5100537;28;20143;-92
2022/01/27 11:11:49;;;;;;;0.10;0.10;;;7.80;99.90;;;;;;5118203;28;20124;-91
2022/01/27 11:14:15;;;;;;;2.72;0.38;;;7.80;99.90;;;;;;5100679;28;20188;-91
2022/01/27 11:16:50;;;;;;;1.55;0.90;;;7.80;99.90;;;;;;5117632;28;20079;-92
2022/01/27 11:19:22;;;;;;;0.08;0.08;;;7.80;99.90;;;;;;5117716;28;20054;-90
2022/01/27 11:22:27;;;;;;;0.90;0.10;;;7.80;99.90;;;;;;5101007;28;20048;-92
2022/01/27 11:27:25;;;;;;;0.00;0.00;;;8.00;99.90;;;;;;5117266;28;20046;-93
2022/01/27 11:30:02;;;;;;;0.00;0.00;;;7.90;99.90;;;;;;5100706;28;20043;-91
2022/01/27 11:32:41;;;;;;;0.03;0.03;;;7.80;99.90;;;;;;5114666;28;20071;-91
2022/01/27 11:35:19;;;;;;;1.15;0.10;;;7.80;99.90;;;;;;5115233;28;20044;-90
2022/01/27 11:37:54;;;;;;;0.00;0.00;;;7.90;99.90;;;;;;5115191;28;20050;-90
2022/01/27 11:40:32;;;;;;;2.65;0.20;;;7.90;99.90;;;;;;5114426;28;20035;-92
2022/01/27 11:42:58;;;;;;;0.00;0.00;;;8.30;99.90;;;;;;5098229;28;20109;-90
2022/01/27 11:45:35;;;;;;;0.95;0.93;;;8.10;99.90;;;;;;5098768;28;20075;-90
2022/01/27 11:48:11;;;;;;;0.10;0.10;;;8.00;99.90;;;;;;5097957;28;20542;-91
2022/01/27 11:50:52;;;;;;;0.30;0.30;;;8.10;99.90;;;;;;5117152;28;20044;-87
2022/01/27 11:53:36;;;;;;;0.00;0.00;;;8.10;99.90;;;;;;5117098;28;20126;-89
2022/01/27 11:56:26;;;;;;;0.52;0.52;;;8.20;99.90;;;;;;5099351;28;20048;-90
2022/01/27 11:58:56;;;;;;;17.52;1.13;;;8.20;99.90;;;;;;5099418;28;20391;-90
2022/01/27 12:01:26;;;;;;;0.90;0.25;;;8.60;99.90;;;;;;5116382;28;20043;-90
2022/01/27 12:04:07;;;;;;;1.23;0.60;;;8.30;99.90;;;;;;5116608;28;20382;-89
2022/01/27 12:06:37;;;;;;;0.10;0.10;;;8.40;99.90;;;;;;5097882;28;20040;-90
2022/01/27 12:09:18;;;;;;;0.28;0.28;;;8.30;99.90;;;;;;5099190;28;20079;-89
2022/01/27 12:11:58;;;;;;;0.60;0.38;;;8.30;99.90;;;;;;5098570;28;20054;-89
2022/01/27 12:14:55;;;;;;;0.00;0.00;;;8.30;99.90;;;;;;5116163;28;20047;-89
2022/01/27 12:17:22;;;;;;;0.00;0.00;;;8.40;99.90;;;;;;5116133;28;20391;-89
2022/01/27 12:19:59;;;;;;;1.52;0.50;;;8.50;99.90;;;;;;5098649;28;20053;-89
2022/01/27 12:22:45;;;;;;;0.00;0.00;;;8.60;99.90;;;;;;5098336;28;20050;-88
2022/01/27 12:25:15;;;;;;;0.05;0.05;;;8.60;99.90;;;;;;5097298;28;20056;-90
2022/01/27 12:27:48;;;;;;;0.45;0.20;;;8.70;99.90;;;;;;5097494;28;20082;-90
2022/01/27 12:30:14;;;;;;;0.10;0.00;;;8.70;99.90;;;;;;5098337;28;20108;-88
2022/01/27 12:32:40;;;;;;;0.00;0.00;;;8.70;99.90;;;;;;5099232;28;20043;-89
2022/01/27 12:35:12;;;;;;;1.35;0.40;;;8.70;99.90;;;;;;5115509;28;20055;-89
2022/01/27 12:37:48;;;;;;;1.45;0.73;;;8.80;99.90;;;;;;5098234;28;20050;-89
2022/01/27 12:40:33;;;;;;;0.17;0.00;;;8.80;99.90;;;;;;5115258;28;20406;-89
2022/01/27 12:43:02;;;;;;;0.00;0.00;;;8.80;99.90;;;;;;5096653;28;20059;-89
2022/01/27 12:45:31;;;;;;;0.52;0.52;;;8.80;99.90;;;;;;5115793;28;20461;-89
2022/01/27 12:48:01;;;;;;;0.00;0.00;;;8.80;99.90;;;;;;5098126;28;20121;-88
2022/01/27 12:50:28;;;;;;;1.25;0.98;;;9.00;99.90;;;;;;5097693;28;20055;-89
2022/01/27 12:53:02;;;;;;;0.00;0.00;;;8.80;99.90;;;;;;5114937;28;20074;-85
2022/01/27 12:55:33;;;;;;;0.00;0.00;;;8.90;99.90;;;;;;5097806;28;20043;-89
2022/01/27 12:58:06;;;;;;;0.57;0.20;;;8.80;99.90;;;;;;5098023;28;20122;-89
2022/01/27 13:00:38;;;;;;;1.13;0.73;;;9.00;99.90;;;;;;5115286;28;20436;-89
2022/01/27 13:03:04;;;;;;;0.00;0.00;;;9.10;99.90;;;;;;5114480;28;20143;-89
2022/01/27 13:05:34;;;;;;;0.30;0.30;;;9.20;99.90;;;;;;5097145;28;20052;-87
2022/01/27 13:08:15;;;;;;;0.00;0.00;;;9.00;99.90;;;;;;5098505;28;20460;-88
2022/01/27 13:10:47;;;;;;;0.00;0.00;;;9.00;99.90;;;;;;5097439;28;20052;-88
2022/01/27 13:13:20;;;;;;;0.38;0.38;;;9.00;99.90;;;;;;5114733;28;20047;-88
2022/01/27 13:15:46;;;;;;;0.85;0.40;;;9.00;99.90;;;;;;5114718;28;20050;-89
2022/01/27 13:18:26;;;;;;;2.25;0.70;;;9.20;99.90;;;;;;5114508;28;20393;-86
2022/01/27 13:20:55;;;;;;;1.45;0.38;;;9.00;99.90;;;;;;5093759;28;20056;-88
2022/01/27 13:25:55;;;;;;;0.38;0.38;;;9.00;99.90;;;;;;5094027;28;20097;-88
2022/01/27 13:28:45;;;;;;;0.65;0.32;;;9.10;99.90;;;;;;5093955;28;20083;-88
2022/01/27 13:31:13;;;;;;;0.00;0.00;;;9.10;99.90;;;;;;5084272;28;20044;-88
2022/01/27 13:33:45;;;;;;;0.08;0.08;;;9.10;99.90;;;;;;5113500;28;20500;-88
2022/01/27 13:36:21;;;;;;;0.00;0.00;;;9.10;99.90;;;;;;5084671;28;20105;-88
2022/01/27 13:39:11;;;;;;;0.03;0.03;;;9.20;99.90;;;;;;5093799;28;20054;-88
2022/01/27 13:41:40;;;;;;;7.47;1.02;;;9.20;99.90;;;;;;5077072;28;20059;-88
2022/01/27 13:44:14;;;;;;;0.00;0.00;;;9.20;99.90;;;;;;5098086;28;20047;-88
2022/01/27 13:46:56;;;;;;;0.00;0.00;;;9.20;99.90;;;;;;5103114;28;20040;-89
2022/01/27 13:49:31;;;;;;;3.53;0.73;;;9.30;99.90;;;;;;5093182;28;20056;-89
2022/01/27 13:52:07;;;;;;;;;;;9.20;99.90;;;;;;5077250;28;20039;-89
2022/01/27 13:54:33;;;;;;;;;;;9.20;99.90;;;;;;5093861;28;19920;-89
2022/01/27 13:57:13;;;;;;;0.00;0.00;;;9.20;99.90;;;;;;5076816;28;20006;-91
2022/01/27 14:00:08;;;;;;;0.60;0.60;;;9.10;99.90;;;;;;5093493;28;20052;-91